sensor_id;sensor_type;location;lat;lon;timestamp;pressure;altitude;pressure_sealevel;temperature;humidity
50310;BME280;36207;51.850;21.698;2023-05-19T00:01:42;100946.45;;;11.38;75.48
50310;BME280;36207;51.850;21.698;2023-05-19T00:04:09;100947.67;;;11.36;75.30
50310;BME280;36207;51.850;21.698;2023-05-19T00:06:37;100942.55;;;11.34;75.31
50310;BME280;36207;51.850;21.698;2023-05-19T00:09:05;100941.49;;;11.34;75.23
50310;BME280;36207;51.850;21.698;2023-05-19T00:11:36;100942.33;;;11.35;75.40
50310;BME280;36207;51.850;21.698;2023-05-19T00:14:04;100944.54;;;11.36;75.41
50310;BME280;36207;51.850;21.698;2023-05-19T00:16:31;100943.94;;;11.38;75.32
50310;BME280;36207;51.850;21.698;2023-05-19T00:18:59;100942.08;;;11.38;75.54
50310;BME280;36207;51.850;21.698;2023-05-19T00:21:25;100941.50;;;11.37;75.39
50310;BME280;36207;51.850;21.698;2023-05-19T00:23:52;100936.81;;;11.36;75.42
50310;BME280;36207;51.850;21.698;2023-05-19T00:26:17;100937.08;;;11.35;75.19
50310;BME280;36207;51.850;21.698;2023-05-19T00:28:43;100933.70;;;11.35;75.39
50310;BME280;36207;51.850;21.698;2023-05-19T00:31:09;100927.14;;;11.36;75.52
50310;BME280;36207;51.850;21.698;2023-05-19T00:33:35;100925.93;;;11.36;75.40
50310;BME280;36207;51.850;21.698;2023-05-19T00:36:02;100920.95;;;11.34;75.54
50310;BME280;36207;51.850;21.698;2023-05-19T00:38:33;100919.92;;;11.32;75.61
50310;BME280;36207;51.850;21.698;2023-05-19T00:41:00;100920.76;;;11.33;75.37
50310;BME280;36207;51.850;21.698;2023-05-19T00:43:26;100920.30;;;11.34;75.32
50310;BME280;36207;51.850;21.698;2023-05-19T00:45:55;100918.56;;;11.35;75.40
50310;BME280;36207;51.850;21.698;2023-05-19T00:48:21;100922.08;;;11.37;75.53
50310;BME280;36207;51.850;21.698;2023-05-19T00:50:49;100921.09;;;11.36;75.33
50310;BME280;36207;51.850;21.698;2023-05-19T00:53:17;100918.02;;;11.35;75.31
50310;BME280;36207;51.850;21.698;2023-05-19T00:55:43;100917.16;;;11.33;75.59
50310;BME280;36207;51.850;21.698;2023-05-19T00:58:11;100921.98;;;11.31;75.50
50310;BME280;36207;51.850;21.698;2023-05-19T01:00:38;100922.86;;;11.31;75.34
50310;BME280;36207;51.850;21.698;2023-05-19T01:03:05;100925.37;;;11.33;75.52
50310;BME280;36207;51.850;21.698;2023-05-19T01:05:39;100929.45;;;11.33;75.57
50310;BME280;36207;51.850;21.698;2023-05-19T01:08:12;100930.80;;;11.31;75.47
50310;BME280;36207;51.850;21.698;2023-05-19T01:10:38;100928.98;;;11.29;75.52
50310;BME280;36207;51.850;21.698;2023-05-19T01:13:05;100925.72;;;11.28;75.42
50310;BME280;36207;51.850;21.698;2023-05-19T01:16:11;100927.73;;;11.26;75.58
50310;BME280;36207;51.850;21.698;2023-05-19T01:19:05;100920.92;;;11.25;75.54
50310;BME280;36207;51.850;21.698;2023-05-19T01:32:05;100913.52;;;11.24;75.52
50310;BME280;36207;51.850;21.698;2023-05-19T01:34:34;100911.10;;;11.23;75.65
50310;BME280;36207;51.850;21.698;2023-05-19T01:37:04;100911.98;;;11.23;75.59
50310;BME280;36207;51.850;21.698;2023-05-19T01:39:32;100914.34;;;11.24;75.63
50310;BME280;36207;51.850;21.698;2023-05-19T01:41:59;100917.52;;;11.26;75.56
50310;BME280;36207;51.850;21.698;2023-05-19T01:44:26;100915.27;;;11.24;75.53
50310;BME280;36207;51.850;21.698;2023-05-19T01:46:53;100911.26;;;11.23;75.45
50310;BME280;36207;51.850;21.698;2023-05-19T01:49:19;100908.09;;;11.21;75.48
50310;BME280;36207;51.850;21.698;2023-05-19T01:51:45;100900.52;;;11.20;75.49
50310;BME280;36207;51.850;21.698;2023-05-19T01:54:11;100897.27;;;11.18;75.43
50310;BME280;36207;51.850;21.698;2023-05-19T01:56:48;100898.20;;;11.16;75.40
50310;BME280;36207;51.850;21.698;2023-05-19T02:02:09;100899.50;;;11.14;75.41
50310;BME280;36207;51.850;21.698;2023-05-19T02:04:43;100898.15;;;11.12;75.64
50310;BME280;36207;51.850;21.698;2023-05-19T02:07:16;100894.57;;;11.10;75.53
50310;BME280;36207;51.850;21.698;2023-05-19T02:09:51;100900.45;;;11.10;75.41
50310;BME280;36207;51.850;21.698;2023-05-19T02:15:26;100902.07;;;11.14;75.70
50310;BME280;36207;51.850;21.698;2023-05-19T02:17:54;100904.12;;;11.15;75.64
50310;BME280;36207;51.850;21.698;2023-05-19T02:20:22;100906.72;;;11.14;75.57
50310;BME280;36207;51.850;21.698;2023-05-19T02:22:48;100907.98;;;11.13;75.65
50310;BME280;36207;51.850;21.698;2023-05-19T02:25:15;100908.96;;;11.14;75.59
50310;BME280;36207;51.850;21.698;2023-05-19T02:27:41;100907.06;;;11.15;75.70
50310;BME280;36207;51.850;21.698;2023-05-19T02:30:08;100905.23;;;11.18;75.73
50310;BME280;36207;51.850;21.698;2023-05-19T02:32:34;100907.19;;;11.19;75.76
50310;BME280;36207;51.850;21.698;2023-05-19T02:35:01;100906.30;;;11.19;75.64
50310;BME280;36207;51.850;21.698;2023-05-19T02:37:28;100902.11;;;11.17;75.60
50310;BME280;36207;51.850;21.698;2023-05-19T02:39:55;100901.91;;;11.15;75.49
50310;BME280;36207;51.850;21.698;2023-05-19T02:42:21;100899.23;;;11.14;75.42
50310;BME280;36207;51.850;21.698;2023-05-19T02:44:47;100902.73;;;11.13;75.56
50310;BME280;36207;51.850;21.698;2023-05-19T02:47:13;100900.11;;;11.14;75.82
50310;BME280;36207;51.850;21.698;2023-05-19T02:49:39;100896.52;;;11.15;75.88
50310;BME280;36207;51.850;21.698;2023-05-19T02:52:05;100899.47;;;11.16;75.71
50310;BME280;36207;51.850;21.698;2023-05-19T02:54:33;100901.73;;;11.14;75.52
50310;BME280;36207;51.850;21.698;2023-05-19T02:56:59;100899.39;;;11.10;75.68
50310;BME280;36207;51.850;21.698;2023-05-19T02:59:26;100898.66;;;11.09;75.67
50310;BME280;36207;51.850;21.698;2023-05-19T03:01:58;100901.87;;;11.11;75.70
50310;BME280;36207;51.850;21.698;2023-05-19T03:04:24;100902.80;;;11.13;75.84
50310;BME280;36207;51.850;21.698;2023-05-19T03:06:50;100905.05;;;11.14;75.64
50310;BME280;36207;51.850;21.698;2023-05-19T03:09:16;100906.61;;;11.13;75.93
50310;BME280;36207;51.850;21.698;2023-05-19T03:11:42;100906.98;;;11.11;75.80
50310;BME280;36207;51.850;21.698;2023-05-19T03:14:08;100901.73;;;11.10;75.88
50310;BME280;36207;51.850;21.698;2023-05-19T03:16:34;100902.27;;;11.12;75.90
50310;BME280;36207;51.850;21.698;2023-05-19T03:19:00;100904.82;;;11.15;75.96
50310;BME280;36207;51.850;21.698;2023-05-19T03:21:26;100904.67;;;11.18;76.00
50310;BME280;36207;51.850;21.698;2023-05-19T03:23:52;100906.61;;;11.20;75.73
50310;BME280;36207;51.850;21.698;2023-05-19T03:26:19;100906.64;;;11.19;75.88
50310;BME280;36207;51.850;21.698;2023-05-19T03:28:45;100904.87;;;11.18;75.83
50310;BME280;36207;51.850;21.698;2023-05-19T03:31:12;100908.13;;;11.17;75.82
50310;BME280;36207;51.850;21.698;2023-05-19T03:33:38;100910.10;;;11.19;75.92
50310;BME280;36207;51.850;21.698;2023-05-19T03:36:04;100910.77;;;11.23;76.02
50310;BME280;36207;51.850;21.698;2023-05-19T03:38:31;100907.45;;;11.26;75.92
50310;BME280;36207;51.850;21.698;2023-05-19T03:40:57;100912.75;;;11.28;75.95
50310;BME280;36207;51.850;21.698;2023-05-19T03:43:23;100912.60;;;11.28;75.92
50310;BME280;36207;51.850;21.698;2023-05-19T03:45:49;100915.42;;;11.28;75.90
50310;BME280;36207;51.850;21.698;2023-05-19T03:48:14;100912.45;;;11.26;75.89
50310;BME280;36207;51.850;21.698;2023-05-19T03:50:41;100914.33;;;11.28;75.99
50310;BME280;36207;51.850;21.698;2023-05-19T03:53:09;100913.54;;;11.32;76.06
50310;BME280;36207;51.850;21.698;2023-05-19T03:55:35;100915.32;;;11.35;76.14
50310;BME280;36207;51.850;21.698;2023-05-19T03:58:02;100918.56;;;11.38;76.00
50310;BME280;36207;51.850;21.698;2023-05-19T04:00:28;100921.71;;;11.41;76.15
50310;BME280;36207;51.850;21.698;2023-05-19T04:02:54;100923.62;;;11.41;76.02
50310;BME280;36207;51.850;21.698;2023-05-19T04:05:20;100924.73;;;11.44;76.30
50310;BME280;36207;51.850;21.698;2023-05-19T04:07:46;100917.20;;;11.50;76.49
50310;BME280;36207;51.850;21.698;2023-05-19T04:10:12;100919.98;;;11.55;76.40
50310;BME280;36207;51.850;21.698;2023-05-19T04:12:38;100916.32;;;11.59;76.35
50310;BME280;36207;51.850;21.698;2023-05-19T04:15:04;100917.96;;;11.62;76.06
50310;BME280;36207;51.850;21.698;2023-05-19T04:17:31;100918.77;;;11.65;76.10
50310;BME280;36207;51.850;21.698;2023-05-19T04:19:57;100919.41;;;11.69;76.17
50310;BME280;36207;51.850;21.698;2023-05-19T04:22:23;100920.77;;;11.75;76.11
50310;BME280;36207;51.850;21.698;2023-05-19T04:24:49;100925.45;;;11.79;76.12
50310;BME280;36207;51.850;21.698;2023-05-19T04:27:16;100926.23;;;11.83;76.15
50310;BME280;36207;51.850;21.698;2023-05-19T04:29:43;100931.02;;;11.85;76.05
50310;BME280;36207;51.850;21.698;2023-05-19T04:32:12;100929.83;;;11.85;75.85
50310;BME280;36207;51.850;21.698;2023-05-19T04:34:42;100929.02;;;11.84;75.91
50310;BME280;36207;51.850;21.698;2023-05-19T04:37:14;100929.86;;;11.85;75.95
50310;BME280;36207;51.850;21.698;2023-05-19T04:39:42;100929.97;;;11.85;75.92
50310;BME280;36207;51.850;21.698;2023-05-19T04:42:10;100931.72;;;11.88;76.10
50310;BME280;36207;51.850;21.698;2023-05-19T04:44:39;100928.58;;;11.90;76.10
50310;BME280;36207;51.850;21.698;2023-05-19T04:47:06;100927.71;;;11.94;76.08
50310;BME280;36207;51.850;21.698;2023-05-19T04:49:34;100927.65;;;11.94;76.01
50310;BME280;36207;51.850;21.698;2023-05-19T04:52:05;100928.81;;;11.93;75.86
50310;BME280;36207;51.850;21.698;2023-05-19T04:54:34;100926.84;;;11.93;75.92
50310;BME280;36207;51.850;21.698;2023-05-19T04:57:00;100919.33;;;11.95;75.99
50310;BME280;36207;51.850;21.698;2023-05-19T04:59:26;100918.27;;;11.96;75.87
50310;BME280;36207;51.850;21.698;2023-05-19T05:01:51;100918.84;;;12.01;76.13
50310;BME280;36207;51.850;21.698;2023-05-19T05:04:18;100920.83;;;12.07;76.16
50310;BME280;36207;51.850;21.698;2023-05-19T05:06:44;100922.40;;;12.11;76.00
50310;BME280;36207;51.850;21.698;2023-05-19T05:09:14;100922.60;;;12.11;76.09
50310;BME280;36207;51.850;21.698;2023-05-19T05:11:41;100926.18;;;12.13;75.82
50310;BME280;36207;51.850;21.698;2023-05-19T05:14:07;100924.31;;;12.17;75.90
50310;BME280;36207;51.850;21.698;2023-05-19T05:16:34;100928.40;;;12.20;75.86
50310;BME280;36207;51.850;21.698;2023-05-19T05:19:00;100930.77;;;12.26;75.80
50310;BME280;36207;51.850;21.698;2023-05-19T05:21:27;100927.73;;;12.29;75.90
50310;BME280;36207;51.850;21.698;2023-05-19T05:23:54;100929.61;;;12.32;75.79
50310;BME280;36207;51.850;21.698;2023-05-19T05:26:20;100927.83;;;12.32;75.80
50310;BME280;36207;51.850;21.698;2023-05-19T05:28:49;100930.30;;;12.32;75.94
50310;BME280;36207;51.850;21.698;2023-05-19T05:31:15;100928.19;;;12.31;75.75
50310;BME280;36207;51.850;21.698;2023-05-19T05:33:41;100925.03;;;12.31;75.75
50310;BME280;36207;51.850;21.698;2023-05-19T05:36:08;100926.45;;;12.33;75.78
50310;BME280;36207;51.850;21.698;2023-05-19T05:38:34;100929.56;;;12.35;75.73
50310;BME280;36207;51.850;21.698;2023-05-19T05:41:00;100930.27;;;12.35;75.77
50310;BME280;36207;51.850;21.698;2023-05-19T05:43:28;100930.63;;;12.35;75.73
50310;BME280;36207;51.850;21.698;2023-05-19T05:45:55;100930.54;;;12.35;75.66
50310;BME280;36207;51.850;21.698;2023-05-19T05:48:22;100931.68;;;12.34;75.57
50310;BME280;36207;51.850;21.698;2023-05-19T05:50:48;100932.35;;;12.35;75.64
50310;BME280;36207;51.850;21.698;2023-05-19T05:53:19;100932.54;;;12.36;75.75
50310;BME280;36207;51.850;21.698;2023-05-19T05:55:46;100931.80;;;12.38;75.53
50310;BME280;36207;51.850;21.698;2023-05-19T05:58:12;100927.45;;;12.40;75.54
50310;BME280;36207;51.850;21.698;2023-05-19T06:00:41;100926.28;;;12.42;75.62
50310;BME280;36207;51.850;21.698;2023-05-19T06:03:13;100927.51;;;12.44;75.67
50310;BME280;36207;51.850;21.698;2023-05-19T06:05:39;100928.09;;;12.45;75.84
50310;BME280;36207;51.850;21.698;2023-05-19T06:08:05;100930.23;;;12.47;75.61
50310;BME280;36207;51.850;21.698;2023-05-19T06:10:31;100932.94;;;12.48;75.53
50310;BME280;36207;51.850;21.698;2023-05-19T06:12:57;100930.21;;;12.50;75.55
50310;BME280;36207;51.850;21.698;2023-05-19T06:15:23;100928.73;;;12.54;75.49
50310;BME280;36207;51.850;21.698;2023-05-19T06:17:49;100931.73;;;12.57;75.46
50310;BME280;36207;51.850;21.698;2023-05-19T06:20:17;100930.87;;;12.56;75.47
50310;BME280;36207;51.850;21.698;2023-05-19T06:22:43;100933.16;;;12.56;75.65
50310;BME280;36207;51.850;21.698;2023-05-19T06:25:09;100934.92;;;12.58;75.53
50310;BME280;36207;51.850;21.698;2023-05-19T06:27:35;100937.04;;;12.60;75.39
50310;BME280;36207;51.850;21.698;2023-05-19T06:30:01;100941.89;;;12.61;75.45
50310;BME280;36207;51.850;21.698;2023-05-19T06:32:27;100943.63;;;12.65;75.43
50310;BME280;36207;51.850;21.698;2023-05-19T06:34:54;100943.35;;;12.69;75.65
50310;BME280;36207;51.850;21.698;2023-05-19T06:37:21;100941.02;;;12.72;75.53
50310;BME280;36207;51.850;21.698;2023-05-19T06:39:51;100940.45;;;12.74;75.80
50310;BME280;36207;51.850;21.698;2023-05-19T06:42:18;100940.96;;;12.76;75.67
50310;BME280;36207;51.850;21.698;2023-05-19T06:44:49;100942.19;;;12.80;75.69
50310;BME280;36207;51.850;21.698;2023-05-19T06:47:15;100943.39;;;12.83;75.58
50310;BME280;36207;51.850;21.698;2023-05-19T06:49:42;100944.05;;;12.88;75.50
50310;BME280;36207;51.850;21.698;2023-05-19T06:52:08;100945.98;;;12.93;75.49
50310;BME280;36207;51.850;21.698;2023-05-19T06:54:34;100943.83;;;12.95;75.57
50310;BME280;36207;51.850;21.698;2023-05-19T06:57:00;100942.02;;;12.97;75.36
50310;BME280;36207;51.850;21.698;2023-05-19T06:59:26;100942.05;;;12.96;75.35
50310;BME280;36207;51.850;21.698;2023-05-19T07:01:52;100943.45;;;12.97;75.25
50310;BME280;36207;51.850;21.698;2023-05-19T07:04:17;100944.45;;;12.97;75.16
50310;BME280;36207;51.850;21.698;2023-05-19T07:06:43;100946.70;;;13.00;75.44
50310;BME280;36207;51.850;21.698;2023-05-19T07:09:09;100951.08;;;13.04;75.18
50310;BME280;36207;51.850;21.698;2023-05-19T07:11:35;100948.69;;;13.07;75.45
50310;BME280;36207;51.850;21.698;2023-05-19T07:14:01;100946.54;;;13.09;75.42
50310;BME280;36207;51.850;21.698;2023-05-19T07:16:27;100945.19;;;13.10;75.41
50310;BME280;36207;51.850;21.698;2023-05-19T07:18:53;100944.85;;;13.11;75.34
50310;BME280;36207;51.850;21.698;2023-05-19T07:21:18;100947.41;;;13.16;75.27
50310;BME280;36207;51.850;21.698;2023-05-19T07:23:44;100949.08;;;13.20;75.29
50310;BME280;36207;51.850;21.698;2023-05-19T07:26:10;100945.75;;;13.24;75.32
50310;BME280;36207;51.850;21.698;2023-05-19T07:28:36;100949.27;;;13.29;75.22
50310;BME280;36207;51.850;21.698;2023-05-19T07:31:02;100949.70;;;13.32;75.34
50310;BME280;36207;51.850;21.698;2023-05-19T07:33:28;100949.65;;;13.34;75.17
50310;BME280;36207;51.850;21.698;2023-05-19T07:35:54;100950.77;;;13.37;75.02
50310;BME280;36207;51.850;21.698;2023-05-19T07:38:20;100948.13;;;13.39;75.02
50310;BME280;36207;51.850;21.698;2023-05-19T07:40:46;100948.96;;;13.40;75.25
50310;BME280;36207;51.850;21.698;2023-05-19T07:43:12;100949.05;;;13.43;75.36
50310;BME280;36207;51.850;21.698;2023-05-19T07:45:38;100945.67;;;13.46;75.04
50310;BME280;36207;51.850;21.698;2023-05-19T07:48:04;100948.71;;;13.49;75.26
50310;BME280;36207;51.850;21.698;2023-05-19T07:50:30;100950.10;;;13.52;75.12
50310;BME280;36207;51.850;21.698;2023-05-19T07:52:56;100951.27;;;13.55;74.70
50310;BME280;36207;51.850;21.698;2023-05-19T07:55:22;100948.92;;;13.55;74.75
50310;BME280;36207;51.850;21.698;2023-05-19T07:57:49;100950.40;;;13.54;74.79
50310;BME280;36207;51.850;21.698;2023-05-19T08:00:16;100950.14;;;13.56;75.05
50310;BME280;36207;51.850;21.698;2023-05-19T08:02:42;100942.81;;;13.61;74.83
50310;BME280;36207;51.850;21.698;2023-05-19T08:05:09;100941.27;;;13.65;74.94
50310;BME280;36207;51.850;21.698;2023-05-19T08:07:36;100940.73;;;13.67;74.80
50310;BME280;36207;51.850;21.698;2023-05-19T08:10:02;100937.48;;;13.67;74.78
50310;BME280;36207;51.850;21.698;2023-05-19T08:12:28;100934.27;;;13.70;75.00
50310;BME280;36207;51.850;21.698;2023-05-19T08:14:54;100930.88;;;13.72;74.72
50310;BME280;36207;51.850;21.698;2023-05-19T08:17:20;100930.85;;;13.70;74.63
50310;BME280;36207;51.850;21.698;2023-05-19T08:19:46;100928.08;;;13.70;74.80
50310;BME280;36207;51.850;21.698;2023-05-19T08:22:12;100926.67;;;13.72;74.74
50310;BME280;36207;51.850;21.698;2023-05-19T08:24:38;100926.95;;;13.76;74.48
50310;BME280;36207;51.850;21.698;2023-05-19T08:27:07;100930.90;;;13.77;74.68
50310;BME280;36207;51.850;21.698;2023-05-19T08:29:33;100933.63;;;13.80;74.52
50310;BME280;36207;51.850;21.698;2023-05-19T08:31:58;100934.42;;;13.82;74.46
50310;BME280;36207;51.850;21.698;2023-05-19T08:34:26;100931.18;;;13.86;74.81
50310;BME280;36207;51.850;21.698;2023-05-19T08:36:52;100931.58;;;13.90;74.98
50310;BME280;36207;51.850;21.698;2023-05-19T08:39:18;100936.41;;;13.96;75.04
50310;BME280;36207;51.850;21.698;2023-05-19T08:41:48;100935.90;;;14.02;74.95
50310;BME280;36207;51.850;21.698;2023-05-19T08:44:14;100936.15;;;14.06;74.89
50310;BME280;36207;51.850;21.698;2023-05-19T08:46:40;100937.48;;;14.08;74.78
50310;BME280;36207;51.850;21.698;2023-05-19T08:49:13;100938.64;;;14.08;74.64
50310;BME280;36207;51.850;21.698;2023-05-19T08:51:47;100936.42;;;14.05;74.16
50310;BME280;36207;51.850;21.698;2023-05-19T08:54:15;100940.09;;;14.03;74.20
50310;BME280;36207;51.850;21.698;2023-05-19T08:56:43;100940.88;;;14.01;74.37
50310;BME280;36207;51.850;21.698;2023-05-19T08:59:13;100939.13;;;14.02;74.59
50310;BME280;36207;51.850;21.698;2023-05-19T09:01:44;100938.33;;;14.06;74.60
50310;BME280;36207;51.850;21.698;2023-05-19T09:04:11;100934.31;;;14.13;74.65
50310;BME280;36207;51.850;21.698;2023-05-19T09:06:37;100939.17;;;14.19;74.55
50310;BME280;36207;51.850;21.698;2023-05-19T09:09:06;100939.63;;;14.24;74.48
50310;BME280;36207;51.850;21.698;2023-05-19T09:11:33;100938.56;;;14.27;74.64
50310;BME280;36207;51.850;21.698;2023-05-19T09:14:00;100939.19;;;14.27;74.52
50310;BME280;36207;51.850;21.698;2023-05-19T09:16:26;100941.34;;;14.27;74.32
50310;BME280;36207;51.850;21.698;2023-05-19T09:18:54;100941.40;;;14.24;74.16
50310;BME280;36207;51.850;21.698;2023-05-19T09:21:30;100941.99;;;14.22;74.12
50310;BME280;36207;51.850;21.698;2023-05-19T09:24:02;100943.60;;;14.22;74.17
50310;BME280;36207;51.850;21.698;2023-05-19T09:26:35;100941.33;;;14.22;73.99
50310;BME280;36207;51.850;21.698;2023-05-19T09:29:18;100941.13;;;14.25;74.28
50310;BME280;36207;51.850;21.698;2023-05-19T09:31:51;100942.97;;;14.26;74.33
50310;BME280;36207;51.850;21.698;2023-05-19T09:34:19;100942.45;;;14.23;73.96
50310;BME280;36207;51.850;21.698;2023-05-19T09:36:46;100941.04;;;14.20;74.44
50310;BME280;36207;51.850;21.698;2023-05-19T09:39:18;100937.15;;;14.19;74.20
50310;BME280;36207;51.850;21.698;2023-05-19T09:41:45;100938.45;;;14.20;73.97
50310;BME280;36207;51.850;21.698;2023-05-19T09:44:23;100937.98;;;14.24;74.15
50310;BME280;36207;51.850;21.698;2023-05-19T09:46:54;100939.47;;;14.30;74.40
50310;BME280;36207;51.850;21.698;2023-05-19T09:49:25;100945.30;;;14.34;74.17
50310;BME280;36207;51.850;21.698;2023-05-19T09:51:54;100944.34;;;14.34;73.88
50310;BME280;36207;51.850;21.698;2023-05-19T09:54:22;100946.64;;;14.31;74.04
50310;BME280;36207;51.850;21.698;2023-05-19T09:57:06;100946.96;;;14.30;74.07
50310;BME280;36207;51.850;21.698;2023-05-19T09:59:33;100944.81;;;14.30;74.10
50310;BME280;36207;51.850;21.698;2023-05-19T10:02:00;100946.27;;;14.33;74.09
50310;BME280;36207;51.850;21.698;2023-05-19T10:04:27;100940.80;;;14.37;74.35
50310;BME280;36207;51.850;21.698;2023-05-19T10:06:55;100938.98;;;14.44;74.54
50310;BME280;36207;51.850;21.698;2023-05-19T10:09:26;100938.10;;;14.51;74.34
50310;BME280;36207;51.850;21.698;2023-05-19T10:11:53;100935.26;;;14.53;74.13
50310;BME280;36207;51.850;21.698;2023-05-19T10:14:27;100935.39;;;14.56;73.93
50310;BME280;36207;51.850;21.698;2023-05-19T10:16:56;100934.73;;;14.60;74.13
50310;BME280;36207;51.850;21.698;2023-05-19T10:19:27;100937.33;;;14.63;74.16
50310;BME280;36207;51.850;21.698;2023-05-19T10:21:54;100937.43;;;14.68;74.27
50310;BME280;36207;51.850;21.698;2023-05-19T10:24:20;100938.59;;;14.74;74.31
50310;BME280;36207;51.850;21.698;2023-05-19T10:27:09;100938.47;;;14.80;74.30
50310;BME280;36207;51.850;21.698;2023-05-19T10:29:44;100930.78;;;14.85;74.14
50310;BME280;36207;51.850;21.698;2023-05-19T10:32:16;100936.29;;;14.91;74.29
50310;BME280;36207;51.850;21.698;2023-05-19T10:39:48;100932.70;;;14.87;74.02
50310;BME280;36207;51.850;21.698;2023-05-19T10:47:35;100937.11;;;14.92;73.88
50310;BME280;36207;51.850;21.698;2023-05-19T10:50:01;100934.98;;;14.92;73.79
50310;BME280;36207;51.850;21.698;2023-05-19T10:52:28;100934.39;;;14.91;73.91
50310;BME280;36207;51.850;21.698;2023-05-19T10:54:56;100934.86;;;14.90;73.95
50310;BME280;36207;51.850;21.698;2023-05-19T10:57:26;100932.42;;;14.88;73.79
50310;BME280;36207;51.850;21.698;2023-05-19T10:59:54;100934.62;;;14.87;73.89
50310;BME280;36207;51.850;21.698;2023-05-19T11:02:41;100934.71;;;14.91;74.07
50310;BME280;36207;51.850;21.698;2023-05-19T11:05:10;100937.06;;;14.95;73.90
50310;BME280;36207;51.850;21.698;2023-05-19T11:07:43;100936.57;;;14.96;73.83
50310;BME280;36207;51.850;21.698;2023-05-19T11:10:22;100935.58;;;14.99;73.83
50310;BME280;36207;51.850;21.698;2023-05-19T11:12:49;100933.66;;;14.98;73.66
50310;BME280;36207;51.850;21.698;2023-05-19T11:15:15;100933.58;;;14.99;73.73
50310;BME280;36207;51.850;21.698;2023-05-19T11:17:44;100934.29;;;15.02;73.89
50310;BME280;36207;51.850;21.698;2023-05-19T11:20:26;100932.71;;;15.05;73.83
50310;BME280;36207;51.850;21.698;2023-05-19T11:23:03;100927.64;;;15.09;73.78
50310;BME280;36207;51.850;21.698;2023-05-19T11:25:43;100927.45;;;15.14;73.85
50310;BME280;36207;51.850;21.698;2023-05-19T11:28:10;100930.89;;;15.21;73.95
50310;BME280;36207;51.850;21.698;2023-05-19T11:30:43;100932.31;;;15.26;73.69
50310;BME280;36207;51.850;21.698;2023-05-19T11:33:11;100931.88;;;15.26;73.37
50310;BME280;36207;51.850;21.698;2023-05-19T11:35:38;100931.67;;;15.27;73.55
50310;BME280;36207;51.850;21.698;2023-05-19T11:38:05;100931.34;;;15.27;73.65
50310;BME280;36207;51.850;21.698;2023-05-19T11:40:32;100931.67;;;15.27;73.68
50310;BME280;36207;51.850;21.698;2023-05-19T11:42:58;100934.39;;;15.29;73.49
50310;BME280;36207;51.850;21.698;2023-05-19T11:45:25;100931.89;;;15.31;73.42
50310;BME280;36207;51.850;21.698;2023-05-19T11:47:54;100929.09;;;15.29;73.14
50310;BME280;36207;51.850;21.698;2023-05-19T11:50:21;100929.55;;;15.29;73.29
50310;BME280;36207;51.850;21.698;2023-05-19T11:52:49;100929.41;;;15.31;73.56
50310;BME280;36207;51.850;21.698;2023-05-19T11:55:17;100927.51;;;15.31;73.54
50310;BME280;36207;51.850;21.698;2023-05-19T11:57:58;100932.45;;;15.32;73.65
50310;BME280;36207;51.850;21.698;2023-05-19T12:00:25;100933.36;;;15.33;73.47
50310;BME280;36207;51.850;21.698;2023-05-19T12:02:51;100932.70;;;15.36;73.52
50310;BME280;36207;51.850;21.698;2023-05-19T12:05:23;100929.30;;;15.42;73.73
50310;BME280;36207;51.850;21.698;2023-05-19T12:07:50;100927.13;;;15.50;73.59
50310;BME280;36207;51.850;21.698;2023-05-19T12:10:22;100925.86;;;15.60;73.81
50310;BME280;36207;51.850;21.698;2023-05-19T12:12:53;100922.54;;;15.72;73.98
50310;BME280;36207;51.850;21.698;2023-05-19T12:15:23;100923.69;;;15.81;73.81
50310;BME280;36207;51.850;21.698;2023-05-19T12:17:50;100926.48;;;15.88;73.98
50310;BME280;36207;51.850;21.698;2023-05-19T12:20:18;100925.77;;;15.92;73.64
50310;BME280;36207;51.850;21.698;2023-05-19T12:22:45;100927.58;;;15.93;73.35
50310;BME280;36207;51.850;21.698;2023-05-19T12:25:14;100923.42;;;15.93;73.23
50310;BME280;36207;51.850;21.698;2023-05-19T12:27:42;100920.06;;;15.93;73.34
50310;BME280;36207;51.850;21.698;2023-05-19T12:30:09;100921.92;;;15.93;73.37
50310;BME280;36207;51.850;21.698;2023-05-19T12:32:35;100922.08;;;15.91;73.34
50310;BME280;36207;51.850;21.698;2023-05-19T12:35:03;100920.56;;;15.89;73.36
50310;BME280;36207;51.850;21.698;2023-05-19T12:37:32;100918.38;;;15.86;73.15
50310;BME280;36207;51.850;21.698;2023-05-19T12:40:01;100917.48;;;15.85;73.16
50310;BME280;36207;51.850;21.698;2023-05-19T12:42:29;100919.02;;;15.84;73.25
50310;BME280;36207;51.850;21.698;2023-05-19T12:44:58;100920.57;;;15.86;73.13
50310;BME280;36207;51.850;21.698;2023-05-19T12:47:34;100917.92;;;15.87;73.18
50310;BME280;36207;51.850;21.698;2023-05-19T12:50:05;100916.71;;;15.88;73.11
50310;BME280;36207;51.850;21.698;2023-05-19T12:52:40;100917.50;;;15.89;72.97
50310;BME280;36207;51.850;21.698;2023-05-19T12:55:07;100916.38;;;15.88;72.97
50310;BME280;36207;51.850;21.698;2023-05-19T12:57:40;100917.44;;;15.87;72.94
50310;BME280;36207;51.850;21.698;2023-05-19T13:00:14;100917.41;;;15.84;72.95
50310;BME280;36207;51.850;21.698;2023-05-19T13:05:22;100918.38;;;15.82;72.88
50310;BME280;36207;51.850;21.698;2023-05-19T13:08:09;100918.66;;;15.81;72.86
50310;BME280;36207;51.850;21.698;2023-05-19T13:10:36;100918.31;;;15.80;73.00
50310;BME280;36207;51.850;21.698;2023-05-19T13:13:04;100921.23;;;15.79;72.93
50310;BME280;36207;51.850;21.698;2023-05-19T13:15:31;100919.54;;;15.77;72.70